createdAt,value
2022-10-17T00:01:55.009Z,14.80
2022-10-17T00:04:22.309Z,14.90
2022-10-17T00:06:50.183Z,14.80
2022-10-17T00:09:18.344Z,14.70
2022-10-17T00:11:45.338Z,14.60
2022-10-17T00:14:12.424Z,14.60
2022-10-17T00:16:39.370Z,14.70
2022-10-17T00:19:08.037Z,14.80
2022-10-17T00:21:37.182Z,14.80
2022-10-17T00:24:05.819Z,14.90
2022-10-17T00:26:38.521Z,14.90
2022-10-17T00:29:05.990Z,15.20
2022-10-17T00:31:32.921Z,15.30
2022-10-17T00:33:59.888Z,15.40
2022-10-17T00:36:30.983Z,15.40
2022-10-17T00:39:02.656Z,15.30
2022-10-17T00:41:33.521Z,15.30
2022-10-17T00:44:14.110Z,15.30
2022-10-17T00:46:41.148Z,15.30
2022-10-17T00:49:13.334Z,15.40
2022-10-17T00:51:46.212Z,15.30
2022-10-17T00:54:22.718Z,15.40
2022-10-17T00:56:51.403Z,15.40
2022-10-17T00:59:23.617Z,15.30
2022-10-17T01:02:13.580Z,15.10
2022-10-17T01:04:45.055Z,15.10
2022-10-17T01:07:13.916Z,15.10
2022-10-17T01:09:43.550Z,15.10
2022-10-17T01:12:22.705Z,15.20
2022-10-17T01:15:27.818Z,15.10
2022-10-17T01:18:18.322Z,15.00
2022-10-17T01:20:59.985Z,14.90
2022-10-17T01:24:07.113Z,14.90
2022-10-17T01:26:55.651Z,14.80
2022-10-17T01:29:51.244Z,14.80
2022-10-17T01:32:37.624Z,14.90
2022-10-17T01:35:20.035Z,14.90
2022-10-17T01:38:01.588Z,14.80
2022-10-17T01:40:47.023Z,14.70
2022-10-17T01:43:29.087Z,14.80
2022-10-17T01:46:05.029Z,14.60
2022-10-17T01:48:39.214Z,14.50
2022-10-17T01:51:31.749Z,14.60
2022-10-17T01:54:05.850Z,14.40
2022-10-17T01:56:36.195Z,14.20
2022-10-17T01:59:20.573Z,14.20
2022-10-17T02:01:59.727Z,14.30
2022-10-17T02:04:26.868Z,14.40
2022-10-17T02:06:55.503Z,14.30
2022-10-17T02:09:28.912Z,14.10
2022-10-17T02:12:19.131Z,14.10
2022-10-17T02:15:17.673Z,14.00
2022-10-17T02:18:03.196Z,14.00
2022-10-17T02:20:38.937Z,14.00
2022-10-17T02:26:12.645Z,13.90
2022-10-17T02:28:53.214Z,13.90
2022-10-17T02:31:29.992Z,13.80
2022-10-17T02:34:09.160Z,14.00
2022-10-17T02:36:46.630Z,13.90
2022-10-17T02:39:23.574Z,13.90
2022-10-17T02:41:52.880Z,13.90
2022-10-17T02:44:21.940Z,14.10
2022-10-17T02:46:57.228Z,14.20
2022-10-17T02:49:30.685Z,14.30
2022-10-17T02:52:18.626Z,14.20
2022-10-17T02:54:54.883Z,14.20
2022-10-17T02:57:42.189Z,14.00
2022-10-17T03:00:14.760Z,14.10
2022-10-17T03:02:43.982Z,14.10
2022-10-17T03:05:15.957Z,14.10
2022-10-17T03:07:44.519Z,14.10
2022-10-17T03:10:14.474Z,14.10
2022-10-17T03:12:43.424Z,14.00
2022-10-17T03:15:11.628Z,13.90
2022-10-17T03:17:39.147Z,14.00
2022-10-17T03:20:07.360Z,13.90
2022-10-17T03:22:35.438Z,13.80
2022-10-17T03:25:03.600Z,13.90
2022-10-17T03:27:34.016Z,13.70
2022-10-17T03:30:05.038Z,13.70
2022-10-17T03:32:39.216Z,13.80
2022-10-17T03:35:15.872Z,13.80
2022-10-17T03:37:44.909Z,13.70
2022-10-17T03:40:12.226Z,13.60
2022-10-17T03:42:40.041Z,13.60
2022-10-17T03:45:14.133Z,13.60
2022-10-17T03:47:43.479Z,13.60
2022-10-17T03:50:15.690Z,13.50
2022-10-17T03:52:55.654Z,13.40
2022-10-17T03:55:22.517Z,13.40
2022-10-17T03:57:59.274Z,13.40
2022-10-17T04:00:26.724Z,13.40
2022-10-17T04:03:03.711Z,13.20
2022-10-17T04:05:39.215Z,13.20
2022-10-17T04:08:15.521Z,13.20
2022-10-17T04:10:42.459Z,13.20
2022-10-17T04:13:09.754Z,13.30
2022-10-17T04:15:38.132Z,13.20
2022-10-17T04:20:35.029Z,13.10
2022-10-17T04:23:05.089Z,13.00
2022-10-17T04:25:43.695Z,13.00
2022-10-17T04:28:14.292Z,13.00
2022-10-17T04:30:45.090Z,13.00
2022-10-17T04:33:20.824Z,12.80
2022-10-17T04:36:12.815Z,12.70
2022-10-17T04:38:41.245Z,12.80
2022-10-17T04:41:12.027Z,12.70
2022-10-17T04:43:40.779Z,12.70
2022-10-17T04:46:11.333Z,12.70
2022-10-17T04:48:39.796Z,12.70
2022-10-17T04:51:24.591Z,12.80
2022-10-17T04:56:39.845Z,12.80
2022-10-17T04:59:09.677Z,12.80
2022-10-17T05:01:39.362Z,12.80
2022-10-17T05:04:06.212Z,12.70
2022-10-17T05:06:38.128Z,12.70
2022-10-17T05:09:12.928Z,12.70
2022-10-17T05:11:43.018Z,12.70
2022-10-17T05:14:10.081Z,12.70
2022-10-17T05:16:37.478Z,12.70
2022-10-17T05:19:05.194Z,12.70
2022-10-17T05:24:02.949Z,12.70
2022-10-17T05:26:37.542Z,12.70
2022-10-17T05:29:09.996Z,12.70
2022-10-17T05:31:43.027Z,12.90
2022-10-17T05:34:13.911Z,12.90
2022-10-17T05:36:45.192Z,13.00
2022-10-17T05:39:15.010Z,12.90
2022-10-17T05:41:47.025Z,12.90
2022-10-17T05:44:14.575Z,12.90
2022-10-17T05:46:42.016Z,13.00
2022-10-17T05:49:25.194Z,13.10
2022-10-17T05:51:57.785Z,13.10
2022-10-17T05:54:26.606Z,13.10
2022-10-17T05:56:54.814Z,13.20
2022-10-17T05:59:24.596Z,13.20
2022-10-17T06:01:59.076Z,13.10
2022-10-17T06:04:36.931Z,13.30
2022-10-17T06:07:09.619Z,13.20
2022-10-17T06:09:38.699Z,13.30
2022-10-17T06:12:06.035Z,13.30
2022-10-17T06:14:33.642Z,13.40
2022-10-17T06:17:05.280Z,13.40
2022-10-17T06:19:34.907Z,13.40
2022-10-17T06:22:04.386Z,13.70
2022-10-17T06:24:32.871Z,13.70
2022-10-17T06:27:01.476Z,13.70
2022-10-17T06:29:31.012Z,13.90
2022-10-17T06:31:59.314Z,14.00
2022-10-17T06:34:26.867Z,14.10
2022-10-17T06:36:53.787Z,14.20
2022-10-17T06:39:21.218Z,14.20
2022-10-17T06:41:51.513Z,14.20
2022-10-17T06:44:18.459Z,14.30
2022-10-17T06:46:50.866Z,14.50
2022-10-17T06:52:14.488Z,14.60
2022-10-17T06:54:41.161Z,14.60
2022-10-17T06:57:08.055Z,14.70
2022-10-17T06:59:35.631Z,14.70
2022-10-17T07:02:07.206Z,14.80
2022-10-17T07:04:34.964Z,14.80
2022-10-17T07:07:03.978Z,14.90
2022-10-17T07:09:34.940Z,15.10
2022-10-17T07:12:08.764Z,15.40
2022-10-17T07:14:39.239Z,15.70
2022-10-17T07:17:06.743Z,16.30
2022-10-17T07:19:33.523Z,16.80
2022-10-17T07:22:02.147Z,17.20
2022-10-17T07:24:29.244Z,17.80
2022-10-17T07:27:00.974Z,19.00
2022-10-17T07:29:30.306Z,20.00
2022-10-17T07:32:00.577Z,20.60
2022-10-17T07:34:31.162Z,21.10
2022-10-17T07:36:58.910Z,21.80
2022-10-17T07:39:26.029Z,22.70
2022-10-17T07:42:00.626Z,23.00
2022-10-17T07:44:30.023Z,23.10
2022-10-17T07:47:02.226Z,23.70
2022-10-17T07:49:30.807Z,24.00
2022-10-17T07:52:02.888Z,23.90
2022-10-17T07:54:29.584Z,24.30
2022-10-17T07:56:59.605Z,24.10
2022-10-17T07:59:28.015Z,25.30
2022-10-17T08:02:00.116Z,26.40
2022-10-17T08:04:27.624Z,26.20
2022-10-17T08:07:00.640Z,26.80
2022-10-17T08:09:38.636Z,26.90
2022-10-17T08:12:08.060Z,26.70
2022-10-17T08:14:39.868Z,27.10
2022-10-17T08:17:09.106Z,27.40
2022-10-17T08:19:48.131Z,26.10
2022-10-17T08:22:15.313Z,26.00
2022-10-17T08:24:43.793Z,26.30
2022-10-17T08:27:22.508Z,26.90
2022-10-17T08:29:54.308Z,27.20
2022-10-17T08:32:22.555Z,26.30
2022-10-17T08:34:49.254Z,26.30
2022-10-17T08:37:16.368Z,26.50
2022-10-17T08:39:44.010Z,26.80
2022-10-17T08:42:32.873Z,27.00
2022-10-17T08:45:36.879Z,27.40
2022-10-17T08:48:13.533Z,26.50
2022-10-17T08:50:51.811Z,25.90
2022-10-17T08:53:50.207Z,25.30
2022-10-17T08:56:47.965Z,25.30
2022-10-17T08:59:29.180Z,24.90
2022-10-17T09:02:19.155Z,25.50
2022-10-17T09:04:48.886Z,25.00
2022-10-17T09:08:02.499Z,24.30
2022-10-17T09:10:47.025Z,23.40
2022-10-17T09:13:38.466Z,22.80
2022-10-17T09:16:30.995Z,22.70
2022-10-17T09:19:16.848Z,22.80
2022-10-17T09:21:49.518Z,22.60
2022-10-17T09:24:46.586Z,22.40
2022-10-17T09:27:43.362Z,22.30
2022-10-17T09:30:45.620Z,22.10
2022-10-17T09:33:28.530Z,22.00
2022-10-17T09:36:28.131Z,22.00
2022-10-17T09:39:00.137Z,22.10
2022-10-17T09:41:49.997Z,22.20
2022-10-17T09:44:45.966Z,22.20
2022-10-17T09:47:24.204Z,22.30
2022-10-17T09:49:52.640Z,22.40
2022-10-17T09:52:25.325Z,22.40
2022-10-17T09:54:56.773Z,22.40
2022-10-17T09:57:24.275Z,22.40
2022-10-17T10:00:00.496Z,22.50
2022-10-17T10:02:31.270Z,22.60
2022-10-17T10:05:04.946Z,22.60
2022-10-17T10:07:36.796Z,22.50
2022-10-17T10:10:07.831Z,22.60
2022-10-17T10:12:39.816Z,22.60
2022-10-17T10:15:33.889Z,22.60
2022-10-17T10:18:02.877Z,22.70
2022-10-17T10:20:35.144Z,22.80
2022-10-17T10:23:14.844Z,22.90
2022-10-17T10:25:56.818Z,22.90
2022-10-17T10:28:29.684Z,23.00
2022-10-17T10:31:00.711Z,23.00
2022-10-17T10:33:30.661Z,23.00
2022-10-17T10:36:03.994Z,23.00
2022-10-17T10:38:33.146Z,22.90
2022-10-17T10:41:09.578Z,22.90
2022-10-17T10:43:43.264Z,22.90
2022-10-17T10:46:21.761Z,23.00
2022-10-17T10:49:00.750Z,23.10
2022-10-17T10:51:35.395Z,23.20
2022-10-17T10:54:11.719Z,23.30
2022-10-17T10:56:51.299Z,23.30
2022-10-17T10:59:32.442Z,23.30
2022-10-17T11:02:15.054Z,23.30
2022-10-17T11:04:58.597Z,23.30
2022-10-17T11:07:32.527Z,23.30
2022-10-17T11:10:16.026Z,23.30
2022-10-17T11:13:14.872Z,23.40
2022-10-17T11:15:58.267Z,23.40
2022-10-17T11:18:30.659Z,23.40
2022-10-17T11:21:24.649Z,23.50
2022-10-17T11:24:12.942Z,23.70
2022-10-17T11:26:56.390Z,23.70
2022-10-17T11:29:30.833Z,23.90
2022-10-17T11:32:20.667Z,24.00
2022-10-17T11:34:53.222Z,24.00
2022-10-17T11:37:45.969Z,24.10
2022-10-17T11:40:23.588Z,24.10
2022-10-17T11:43:12.376Z,24.20
2022-10-17T11:45:48.015Z,24.20
2022-10-17T11:48:24.542Z,24.20
2022-10-17T11:54:28.945Z,24.40
2022-10-17T11:57:40.026Z,24.50
2022-10-17T12:00:35.782Z,24.60
2022-10-17T12:03:17.547Z,24.60
2022-10-17T12:05:55.812Z,24.60
2022-10-17T12:08:45.022Z,24.60
2022-10-17T12:11:36.673Z,24.60
2022-10-17T12:14:06.199Z,24.60
2022-10-17T12:16:38.626Z,24.80
2022-10-17T12:19:20.606Z,24.80
2022-10-17T12:22:00.450Z,24.90
2022-10-17T12:24:58.241Z,24.80
2022-10-17T12:27:42.476Z,24.80
2022-10-17T12:30:12.413Z,24.90
2022-10-17T12:33:12.560Z,24.90
2022-10-17T12:35:39.703Z,25.00
2022-10-17T12:38:18.947Z,25.00
2022-10-17T12:40:49.092Z,25.20
2022-10-17T12:43:30.622Z,25.30
2022-10-17T12:45:59.129Z,25.10
2022-10-17T12:48:38.522Z,24.90
2022-10-17T12:51:37.884Z,24.80
2022-10-17T12:54:12.784Z,24.80
2022-10-17T12:56:46.340Z,24.80
2022-10-17T12:59:29.201Z,24.80
2022-10-17T13:01:59.906Z,24.70
2022-10-17T13:04:29.923Z,24.60
2022-10-17T13:07:01.433Z,24.60
2022-10-17T13:09:33.774Z,24.40
2022-10-17T13:12:05.090Z,24.50
2022-10-17T13:14:34.570Z,24.50
2022-10-17T13:17:04.121Z,24.60
2022-10-17T13:19:45.696Z,24.50
2022-10-17T13:22:18.749Z,24.60
2022-10-17T13:24:47.454Z,24.40
2022-10-17T13:27:33.659Z,24.40
2022-10-17T13:30:03.484Z,24.30
2022-10-17T13:32:39.247Z,24.20
2022-10-17T13:35:15.082Z,24.20
2022-10-17T13:37:52.995Z,24.20
2022-10-17T13:43:18.718Z,24.20
2022-10-17T13:45:53.162Z,24.20
2022-10-17T13:48:28.537Z,24.10
2022-10-17T13:51:01.727Z,23.90
2022-10-17T13:53:40.253Z,23.90
2022-10-17T13:56:29.898Z,23.80
2022-10-17T13:59:05.187Z,23.90
2022-10-17T14:01:36.172Z,24.00
2022-10-17T14:04:09.482Z,23.90
2022-10-17T14:06:51.175Z,23.90
2022-10-17T14:09:41.384Z,23.90
2022-10-17T14:12:12.915Z,23.80
2022-10-17T14:15:09.418Z,23.60
2022-10-17T14:17:34.676Z,23.60
2022-10-17T14:20:34.497Z,23.70
2022-10-17T14:23:17.606Z,23.60
2022-10-17T14:25:40.477Z,23.40
2022-10-17T14:28:14.540Z,23.50
2022-10-17T14:30:56.679Z,23.40
2022-10-17T14:33:30.637Z,23.40
2022-10-17T14:35:59.967Z,23.30
2022-10-17T14:38:29.364Z,23.30
2022-10-17T14:43:59.399Z,23.30
2022-10-17T14:46:26.983Z,23.20
2022-10-17T14:49:15.357Z,23.00
2022-10-17T14:52:28.288Z,23.00
2022-10-17T14:54:56.533Z,23.00
2022-10-17T14:57:34.754Z,23.00
2022-10-17T15:00:01.530Z,22.90
2022-10-17T15:02:30.757Z,22.80
2022-10-17T15:04:58.234Z,22.80
2022-10-17T15:07:25.090Z,22.80
2022-10-17T15:09:54.080Z,22.70
2022-10-17T15:12:23.368Z,22.60
2022-10-17T15:14:51.101Z,22.50
2022-10-17T15:17:38.297Z,22.40
2022-10-17T15:20:14.365Z,22.30
2022-10-17T15:22:41.191Z,22.20
2022-10-17T15:25:09.317Z,22.30
2022-10-17T15:27:36.166Z,22.00
2022-10-17T15:30:04.480Z,22.00
2022-10-17T15:32:31.306Z,21.80
2022-10-17T15:34:58.329Z,21.70
2022-10-17T15:37:26.543Z,21.50
2022-10-17T15:39:55.038Z,21.50
2022-10-17T15:42:27.512Z,21.40
2022-10-17T15:44:55.469Z,21.30
2022-10-17T15:47:31.469Z,21.20
2022-10-17T15:50:00.954Z,21.10
2022-10-17T15:52:30.422Z,21.10
2022-10-17T15:55:04.136Z,20.90
2022-10-17T15:57:38.888Z,20.80
2022-10-17T16:00:19.241Z,20.80
2022-10-17T16:02:47.789Z,20.70
2022-10-17T16:05:25.799Z,20.70
2022-10-17T16:08:02.097Z,20.60
2022-10-17T16:10:29.946Z,20.50
2022-10-17T16:12:58.411Z,20.50
2022-10-17T16:15:28.179Z,20.40
2022-10-17T16:17:57.082Z,20.40
2022-10-17T16:20:27.713Z,20.40
2022-10-17T16:23:00.236Z,20.30
2022-10-17T16:25:28.936Z,20.10
2022-10-17T16:30:45.093Z,19.80
2022-10-17T16:33:24.026Z,19.70
2022-10-17T16:35:51.489Z,19.50
2022-10-17T16:38:18.360Z,19.60
2022-10-17T16:40:48.667Z,19.50
2022-10-17T16:43:16.842Z,19.50
2022-10-17T16:45:47.437Z,19.40
2022-10-17T16:48:17.481Z,19.30
2022-10-17T16:50:45.340Z,19.20
2022-10-17T16:53:14.023Z,19.00
2022-10-17T16:55:42.323Z,18.90
2022-10-17T16:58:10.163Z,18.90
2022-10-17T17:00:39.499Z,18.90
2022-10-17T17:03:08.034Z,18.70
2022-10-17T17:05:37.474Z,18.70
2022-10-17T17:08:10.442Z,18.60
2022-10-17T17:10:45.800Z,18.60
2022-10-17T17:13:16.191Z,18.50
2022-10-17T17:15:43.219Z,18.50
2022-10-17T17:18:12.760Z,18.50
2022-10-17T17:20:48.764Z,18.50
2022-10-17T17:23:18.281Z,18.50
2022-10-17T17:26:07.220Z,18.50
2022-10-17T17:28:35.056Z,18.40
2022-10-17T17:31:02.352Z,18.50
2022-10-17T17:33:33.857Z,18.50
2022-10-17T17:36:02.345Z,18.40
2022-10-17T17:38:33.423Z,18.30
2022-10-17T17:41:01.628Z,18.30
2022-10-17T17:43:29.883Z,18.20
2022-10-17T17:45:58.305Z,18.20
2022-10-17T17:48:30.907Z,18.20
2022-10-17T17:50:58.352Z,18.20
2022-10-17T17:53:29.548Z,18.10
2022-10-17T17:56:18.908Z,18.10
2022-10-17T17:58:47.356Z,18.10
2022-10-17T18:01:23.472Z,18.00
2022-10-17T18:04:01.209Z,18.10
2022-10-17T18:06:40.544Z,18.00
2022-10-17T18:09:10.916Z,18.00
2022-10-17T18:11:46.207Z,18.10
2022-10-17T18:14:15.363Z,18.00
2022-10-17T18:16:56.865Z,18.00
2022-10-17T18:22:02.769Z,18.10
2022-10-17T18:24:31.983Z,18.10
2022-10-17T18:27:00.590Z,18.20
2022-10-17T18:29:29.550Z,18.00
2022-10-17T18:31:57.615Z,17.90
2022-10-17T18:34:28.611Z,18.00
2022-10-17T18:37:00.187Z,18.00
2022-10-17T18:39:30.012Z,18.00
2022-10-17T18:41:57.064Z,17.90
2022-10-17T18:44:25.749Z,17.90
2022-10-17T18:46:57.513Z,17.90
2022-10-17T18:49:30.499Z,17.90
2022-10-17T18:51:58.946Z,18.00
2022-10-17T18:57:03.591Z,18.00
2022-10-17T18:59:30.729Z,17.90
2022-10-17T19:02:00.691Z,17.90
2022-10-17T19:04:33.687Z,17.70
2022-10-17T19:07:00.742Z,17.80
2022-10-17T19:09:28.897Z,17.70
2022-10-17T19:11:56.676Z,17.60
2022-10-17T19:14:25.080Z,17.70
2022-10-17T19:16:55.510Z,17.70
2022-10-17T19:24:49.748Z,17.60
2022-10-17T19:27:30.381Z,17.50
2022-10-17T19:30:03.229Z,17.50
2022-10-17T19:32:33.405Z,17.70
2022-10-17T19:37:41.791Z,17.70
2022-10-17T19:40:10.052Z,17.80
2022-10-17T19:42:37.983Z,17.80
2022-10-17T19:45:11.948Z,17.90
2022-10-17T19:47:43.207Z,17.80
2022-10-17T19:50:10.323Z,17.80
2022-10-17T19:52:38.104Z,17.70
2022-10-17T19:55:07.830Z,17.60
2022-10-17T19:57:36.786Z,17.50
2022-10-17T20:00:08.236Z,17.50
2022-10-17T20:02:36.394Z,17.30
2022-10-17T20:05:18.412Z,17.40
2022-10-17T20:07:49.097Z,17.40
2022-10-17T20:10:18.262Z,17.20
2022-10-17T20:15:28.079Z,17.20
2022-10-17T20:17:56.670Z,17.20
2022-10-17T20:20:26.940Z,17.00
2022-10-17T20:22:54.459Z,17.00
2022-10-17T20:25:24.198Z,16.90
2022-10-17T20:27:54.252Z,16.90
2022-10-17T20:30:21.099Z,16.80
2022-10-17T20:32:55.273Z,16.70
2022-10-17T20:35:24.427Z,16.60
2022-10-17T20:37:51.600Z,16.60
2022-10-17T20:40:34.732Z,16.70
2022-10-17T20:43:03.295Z,16.60
2022-10-17T20:45:44.248Z,16.50
2022-10-17T20:48:27.647Z,16.20
2022-10-17T20:50:56.208Z,16.00
2022-10-17T20:53:41.780Z,16.00
2022-10-17T20:56:13.525Z,16.00
2022-10-17T20:58:40.674Z,16.00
2022-10-17T21:01:10.269Z,16.00
2022-10-17T21:03:43.818Z,16.10
2022-10-17T21:06:14.680Z,16.00
2022-10-17T21:08:42.213Z,16.00
2022-10-17T21:11:18.181Z,16.20
2022-10-17T21:13:47.494Z,16.40
2022-10-17T21:16:19.610Z,16.40
2022-10-17T21:18:47.510Z,16.30
2022-10-17T21:21:22.247Z,16.10
2022-10-17T21:23:51.018Z,16.10
2022-10-17T21:26:22.961Z,15.80
2022-10-17T21:28:54.290Z,15.70
2022-10-17T21:31:32.032Z,15.70
2022-10-17T21:34:04.525Z,15.80
2022-10-17T21:36:45.801Z,15.50
2022-10-17T21:39:17.564Z,15.50
2022-10-17T21:41:46.087Z,15.50
2022-10-17T21:44:18.943Z,15.70
2022-10-17T21:46:48.742Z,15.70
2022-10-17T21:49:18.133Z,15.80
2022-10-17T21:51:48.175Z,15.70
2022-10-17T21:54:25.056Z,15.60
2022-10-17T21:56:52.718Z,15.60
2022-10-17T21:59:21.768Z,15.70
2022-10-17T22:01:50.811Z,15.80
2022-10-17T22:04:20.137Z,15.90
2022-10-17T22:06:52.545Z,15.80
2022-10-17T22:09:26.502Z,15.80
2022-10-17T22:12:00.229Z,15.60
2022-10-17T22:14:29.730Z,15.40
2022-10-17T22:16:57.495Z,15.40
2022-10-17T22:19:30.185Z,15.30
2022-10-17T22:21:59.211Z,15.30
2022-10-17T22:24:29.233Z,15.40
2022-10-17T22:26:57.805Z,15.40
2022-10-17T22:29:25.973Z,15.40
2022-10-17T22:31:53.906Z,15.50
2022-10-17T22:34:21.325Z,15.40
2022-10-17T22:36:49.151Z,15.40
2022-10-17T22:39:16.971Z,15.40
2022-10-17T22:41:44.176Z,15.30
2022-10-17T22:44:12.277Z,15.30
2022-10-17T22:46:43.071Z,15.40
2022-10-17T22:49:10.779Z,15.20
2022-10-17T22:51:41.711Z,15.30
2022-10-17T22:54:08.790Z,15.30
2022-10-17T22:56:59.561Z,15.40
2022-10-17T22:59:26.432Z,15.20
2022-10-17T23:01:59.404Z,15.20
2022-10-17T23:04:27.602Z,15.00
2022-10-17T23:06:54.994Z,15.00
2022-10-17T23:09:22.618Z,15.20
2022-10-17T23:11:51.904Z,15.20
2022-10-17T23:14:20.064Z,15.30
2022-10-17T23:16:48.033Z,15.40
2022-10-17T23:19:16.442Z,15.40
2022-10-17T23:21:44.539Z,15.40
2022-10-17T23:24:13.396Z,15.30
2022-10-17T23:26:40.895Z,15.30
2022-10-17T23:29:08.254Z,15.10
2022-10-17T23:31:50.370Z,14.90
2022-10-17T23:34:17.520Z,15.00
2022-10-17T23:36:45.729Z,15.00
2022-10-17T23:39:19.127Z,15.00
2022-10-17T23:41:46.345Z,14.90
2022-10-17T23:44:15.280Z,15.10
2022-10-17T23:46:43.702Z,15.20
2022-10-17T23:49:12.250Z,15.30
2022-10-17T23:51:42.568Z,15.40
2022-10-17T23:54:13.689Z,15.00
2022-10-17T23:56:43.674Z,15.00
2022-10-17T23:59:16.583Z,15.10
